Terminal Aerodrome Forecast
Issued by NWS

Home | Current Version | Previous Version | Text Only | Print | Product List | Glossary On
Versions: 1 2 3 4 5 6 7 8 9 10 11 12
203
FTUS42 TJSJ 211733
TAFNCM
TAF
TNCM 211733Z 2118/2218 04004KT P6SM SCT016
     FM220000 03003KT P6SM VCSH SCT016
     FM221400 08005KT P6SM SCT018=

USA.gov is the U.S. government's official web portal to all federal, state and local government web resources and services.